sensor_id;sensor_type;location;lat;lon;timestamp;temperature;humidity
7399;DHT22;3740;50.700;7.184;2024-01-30T00:01:11;8.00;99.90
7399;DHT22;3740;50.700;7.184;2024-01-30T00:03:36;8.00;99.90
7399;DHT22;3740;50.700;7.184;2024-01-30T00:06:03;7.90;99.90
7399;DHT22;3740;50.700;7.184;2024-01-30T00:08:29;7.90;99.90
7399;DHT22;3740;50.700;7.184;2024-01-30T00:10:54;7.90;99.90
7399;DHT22;3740;50.700;7.184;2024-01-30T00:13:20;7.90;99.90
7399;DHT22;3740;50.700;7.184;2024-01-30T00:15:46;7.80;99.90
7399;DHT22;3740;50.700;7.184;2024-01-30T00:18:11;7.80;99.90
7399;DHT22;3740;50.700;7.184;2024-01-30T00:20:37;7.80;99.90
7399;DHT22;3740;50.700;7.184;2024-01-30T00:23:02;7.80;99.90
7399;DHT22;3740;50.700;7.184;2024-01-30T00:25:28;7.90;99.90
7399;DHT22;3740;50.700;7.184;2024-01-30T00:27:53;7.80;99.90
7399;DHT22;3740;50.700;7.184;2024-01-30T00:30:20;7.80;99.90
7399;DHT22;3740;50.700;7.184;2024-01-30T00:32:46;7.80;99.90
7399;DHT22;3740;50.700;7.184;2024-01-30T00:35:11;7.80;99.90
7399;DHT22;3740;50.700;7.184;2024-01-30T00:37:37;7.80;99.90
7399;DHT22;3740;50.700;7.184;2024-01-30T00:40:02;7.80;99.90
7399;DHT22;3740;50.700;7.184;2024-01-30T00:42:29;7.80;99.90
7399;DHT22;3740;50.700;7.184;2024-01-30T00:44:54;7.80;99.90
7399;DHT22;3740;50.700;7.184;2024-01-30T00:47:20;7.70;99.90
7399;DHT22;3740;50.700;7.184;2024-01-30T00:49:45;7.70;99.90
7399;DHT22;3740;50.700;7.184;2024-01-30T00:52:11;7.60;99.90
7399;DHT22;3740;50.700;7.184;2024-01-30T00:54:37;7.60;99.90
7399;DHT22;3740;50.700;7.184;2024-01-30T00:57:03;7.60;99.90
7399;DHT22;3740;50.700;7.184;2024-01-30T00:59:28;7.60;99.90
7399;DHT22;3740;50.700;7.184;2024-01-30T01:01:54;7.60;99.90
7399;DHT22;3740;50.700;7.184;2024-01-30T01:04:19;7.60;99.90
7399;DHT22;3740;50.700;7.184;2024-01-30T01:06:46;7.60;99.90
7399;DHT22;3740;50.700;7.184;2024-01-30T01:09:12;7.50;99.90
7399;DHT22;3740;50.700;7.184;2024-01-30T01:11:38;7.50;99.90
7399;DHT22;3740;50.700;7.184;2024-01-30T01:14:04;7.50;99.90
7399;DHT22;3740;50.700;7.184;2024-01-30T01:16:29;7.50;99.90
7399;DHT22;3740;50.700;7.184;2024-01-30T01:18:55;7.50;99.90
7399;DHT22;3740;50.700;7.184;2024-01-30T01:21:21;7.50;99.90
7399;DHT22;3740;50.700;7.184;2024-01-30T01:23:47;7.50;99.90
7399;DHT22;3740;50.700;7.184;2024-01-30T01:26:12;7.40;99.90
7399;DHT22;3740;50.700;7.184;2024-01-30T01:28:40;7.50;99.90
7399;DHT22;3740;50.700;7.184;2024-01-30T01:31:06;7.40;99.90
7399;DHT22;3740;50.700;7.184;2024-01-30T01:33:32;7.50;99.90
7399;DHT22;3740;50.700;7.184;2024-01-30T01:35:59;7.50;99.90
7399;DHT22;3740;50.700;7.184;2024-01-30T01:38:24;7.60;99.90
7399;DHT22;3740;50.700;7.184;2024-01-30T01:40:50;7.60;99.90
7399;DHT22;3740;50.700;7.184;2024-01-30T01:43:16;7.60;99.90
7399;DHT22;3740;50.700;7.184;2024-01-30T01:45:42;7.60;99.90
7399;DHT22;3740;50.700;7.184;2024-01-30T01:48:07;7.60;99.90
7399;DHT22;3740;50.700;7.184;2024-01-30T01:50:34;7.60;99.90
7399;DHT22;3740;50.700;7.184;2024-01-30T01:53:01;7.50;99.90
7399;DHT22;3740;50.700;7.184;2024-01-30T01:55:29;7.60;99.90
7399;DHT22;3740;50.700;7.184;2024-01-30T01:57:55;7.60;99.90
7399;DHT22;3740;50.700;7.184;2024-01-30T02:00:21;7.60;99.90
7399;DHT22;3740;50.700;7.184;2024-01-30T02:02:47;7.60;99.90
7399;DHT22;3740;50.700;7.184;2024-01-30T02:05:14;7.60;99.90
7399;DHT22;3740;50.700;7.184;2024-01-30T02:07:39;7.60;99.90
7399;DHT22;3740;50.700;7.184;2024-01-30T02:10:06;7.70;99.90
7399;DHT22;3740;50.700;7.184;2024-01-30T02:12:32;7.80;99.90
7399;DHT22;3740;50.700;7.184;2024-01-30T02:14:58;7.70;99.90
7399;DHT22;3740;50.700;7.184;2024-01-30T02:17:24;7.70;99.90
7399;DHT22;3740;50.700;7.184;2024-01-30T02:19:49;7.70;99.90
7399;DHT22;3740;50.700;7.184;2024-01-30T02:22:15;7.60;99.90
7399;DHT22;3740;50.700;7.184;2024-01-30T02:24:41;7.60;99.90
7399;DHT22;3740;50.700;7.184;2024-01-30T02:27:06;7.60;99.90
7399;DHT22;3740;50.700;7.184;2024-01-30T02:29:32;7.70;99.90
7399;DHT22;3740;50.700;7.184;2024-01-30T02:31:57;7.60;99.90
7399;DHT22;3740;50.700;7.184;2024-01-30T02:34:23;7.70;99.90
7399;DHT22;3740;50.700;7.184;2024-01-30T02:36:49;7.70;99.90
7399;DHT22;3740;50.700;7.184;2024-01-30T02:39:14;7.70;99.90
7399;DHT22;3740;50.700;7.184;2024-01-30T02:41:40;7.60;99.90
7399;DHT22;3740;50.700;7.184;2024-01-30T02:44:05;7.60;99.90
7399;DHT22;3740;50.700;7.184;2024-01-30T02:46:31;7.60;99.90
7399;DHT22;3740;50.700;7.184;2024-01-30T02:48:57;7.60;99.90
7399;DHT22;3740;50.700;7.184;2024-01-30T02:51:22;7.60;99.90
7399;DHT22;3740;50.700;7.184;2024-01-30T02:53:48;7.60;99.90
7399;DHT22;3740;50.700;7.184;2024-01-30T02:56:13;7.60;99.90
7399;DHT22;3740;50.700;7.184;2024-01-30T02:58:39;7.60;99.90
7399;DHT22;3740;50.700;7.184;2024-01-30T03:01:06;7.60;99.90
7399;DHT22;3740;50.700;7.184;2024-01-30T03:03:31;7.60;99.90
7399;DHT22;3740;50.700;7.184;2024-01-30T03:05:57;7.60;99.90
7399;DHT22;3740;50.700;7.184;2024-01-30T03:08:23;7.60;99.90
7399;DHT22;3740;50.700;7.184;2024-01-30T03:10:48;7.70;99.90
7399;DHT22;3740;50.700;7.184;2024-01-30T03:13:14;7.70;99.90
7399;DHT22;3740;50.700;7.184;2024-01-30T03:15:39;7.70;99.90
7399;DHT22;3740;50.700;7.184;2024-01-30T03:18:05;7.70;99.90
7399;DHT22;3740;50.700;7.184;2024-01-30T03:20:31;7.70;99.90
7399;DHT22;3740;50.700;7.184;2024-01-30T03:22:57;7.60;99.90
7399;DHT22;3740;50.700;7.184;2024-01-30T03:25:22;7.60;99.90
7399;DHT22;3740;50.700;7.184;2024-01-30T03:27:48;7.50;99.90
7399;DHT22;3740;50.700;7.184;2024-01-30T03:30:14;7.50;99.90
7399;DHT22;3740;50.700;7.184;2024-01-30T03:32:39;7.50;99.90
7399;DHT22;3740;50.700;7.184;2024-01-30T03:35:05;7.50;99.90
7399;DHT22;3740;50.700;7.184;2024-01-30T03:37:31;7.50;99.90
7399;DHT22;3740;50.700;7.184;2024-01-30T03:39:56;7.50;99.90
7399;DHT22;3740;50.700;7.184;2024-01-30T03:42:22;7.50;99.90
7399;DHT22;3740;50.700;7.184;2024-01-30T03:44:48;7.50;99.90
7399;DHT22;3740;50.700;7.184;2024-01-30T03:47:14;7.50;99.90
7399;DHT22;3740;50.700;7.184;2024-01-30T03:49:40;7.50;99.90
7399;DHT22;3740;50.700;7.184;2024-01-30T03:52:05;7.60;99.90
7399;DHT22;3740;50.700;7.184;2024-01-30T03:54:31;7.60;99.90
7399;DHT22;3740;50.700;7.184;2024-01-30T03:56:57;7.70;99.90
7399;DHT22;3740;50.700;7.184;2024-01-30T03:59:22;7.70;99.90
7399;DHT22;3740;50.700;7.184;2024-01-30T04:01:50;7.70;99.90
7399;DHT22;3740;50.700;7.184;2024-01-30T04:04:17;7.70;99.90
7399;DHT22;3740;50.700;7.184;2024-01-30T04:06:43;7.70;99.90
7399;DHT22;3740;50.700;7.184;2024-01-30T04:09:09;7.70;99.90
7399;DHT22;3740;50.700;7.184;2024-01-30T04:11:34;7.70;99.90
7399;DHT22;3740;50.700;7.184;2024-01-30T04:14:00;7.70;99.90
7399;DHT22;3740;50.700;7.184;2024-01-30T04:16:26;7.80;99.90
7399;DHT22;3740;50.700;7.184;2024-01-30T04:18:52;7.80;99.90
7399;DHT22;3740;50.700;7.184;2024-01-30T04:21:17;7.80;99.90
7399;DHT22;3740;50.700;7.184;2024-01-30T04:23:43;7.70;99.90
7399;DHT22;3740;50.700;7.184;2024-01-30T04:26:08;7.80;99.90
7399;DHT22;3740;50.700;7.184;2024-01-30T04:28:34;7.80;99.90
7399;DHT22;3740;50.700;7.184;2024-01-30T04:31:00;7.70;99.90
7399;DHT22;3740;50.700;7.184;2024-01-30T04:33:25;7.70;99.90
7399;DHT22;3740;50.700;7.184;2024-01-30T04:35:51;7.60;99.90
7399;DHT22;3740;50.700;7.184;2024-01-30T04:38:17;7.60;99.90
7399;DHT22;3740;50.700;7.184;2024-01-30T04:40:43;7.50;99.90
7399;DHT22;3740;50.700;7.184;2024-01-30T04:43:08;7.40;99.90
7399;DHT22;3740;50.700;7.184;2024-01-30T04:45:35;7.40;99.90
7399;DHT22;3740;50.700;7.184;2024-01-30T04:48:00;7.30;99.90
7399;DHT22;3740;50.700;7.184;2024-01-30T04:50:26;7.20;99.90
7399;DHT22;3740;50.700;7.184;2024-01-30T04:52:52;7.20;99.90
7399;DHT22;3740;50.700;7.184;2024-01-30T04:55:18;7.20;99.90
7399;DHT22;3740;50.700;7.184;2024-01-30T04:57:43;7.20;99.90
7399;DHT22;3740;50.700;7.184;2024-01-30T05:00:09;7.20;99.90
7399;DHT22;3740;50.700;7.184;2024-01-30T05:02:35;7.20;99.90
7399;DHT22;3740;50.700;7.184;2024-01-30T05:05:00;7.30;99.90
7399;DHT22;3740;50.700;7.184;2024-01-30T05:07:26;7.40;99.90
7399;DHT22;3740;50.700;7.184;2024-01-30T05:09:52;7.40;99.90
7399;DHT22;3740;50.700;7.184;2024-01-30T05:12:17;7.40;99.90
7399;DHT22;3740;50.700;7.184;2024-01-30T05:14:43;7.40;99.90
7399;DHT22;3740;50.700;7.184;2024-01-30T05:17:08;7.40;99.90
7399;DHT22;3740;50.700;7.184;2024-01-30T05:19:35;7.40;99.90
7399;DHT22;3740;50.700;7.184;2024-01-30T05:22:01;7.40;99.90
7399;DHT22;3740;50.700;7.184;2024-01-30T05:24:26;7.40;99.90
7399;DHT22;3740;50.700;7.184;2024-01-30T05:26:52;7.40;99.90
7399;DHT22;3740;50.700;7.184;2024-01-30T05:29:18;7.40;99.90
7399;DHT22;3740;50.700;7.184;2024-01-30T05:31:43;7.40;99.90
7399;DHT22;3740;50.700;7.184;2024-01-30T05:34:09;7.40;99.90
7399;DHT22;3740;50.700;7.184;2024-01-30T05:36:35;7.30;99.90
7399;DHT22;3740;50.700;7.184;2024-01-30T05:39:00;7.20;99.90
7399;DHT22;3740;50.700;7.184;2024-01-30T05:41:26;7.20;99.90
7399;DHT22;3740;50.700;7.184;2024-01-30T05:43:51;7.20;99.90
7399;DHT22;3740;50.700;7.184;2024-01-30T05:46:17;7.20;99.90
7399;DHT22;3740;50.700;7.184;2024-01-30T05:48:42;7.20;99.90
7399;DHT22;3740;50.700;7.184;2024-01-30T05:51:08;7.20;99.90
7399;DHT22;3740;50.700;7.184;2024-01-30T05:53:34;7.20;99.90
7399;DHT22;3740;50.700;7.184;2024-01-30T05:56:03;7.20;99.90
7399;DHT22;3740;50.700;7.184;2024-01-30T05:58:29;7.20;99.90
7399;DHT22;3740;50.700;7.184;2024-01-30T06:00:54;7.20;99.90
7399;DHT22;3740;50.700;7.184;2024-01-30T06:03:20;7.20;99.90
7399;DHT22;3740;50.700;7.184;2024-01-30T06:05:46;7.20;99.90
7399;DHT22;3740;50.700;7.184;2024-01-30T06:08:11;7.20;99.90
7399;DHT22;3740;50.700;7.184;2024-01-30T06:10:37;7.20;99.90
7399;DHT22;3740;50.700;7.184;2024-01-30T06:13:03;7.20;99.90
7399;DHT22;3740;50.700;7.184;2024-01-30T06:15:28;7.20;99.90
7399;DHT22;3740;50.700;7.184;2024-01-30T06:17:55;7.10;99.90
7399;DHT22;3740;50.700;7.184;2024-01-30T06:20:21;7.10;99.90
7399;DHT22;3740;50.700;7.184;2024-01-30T06:22:46;7.00;99.90
7399;DHT22;3740;50.700;7.184;2024-01-30T06:25:12;7.00;99.90
7399;DHT22;3740;50.700;7.184;2024-01-30T06:27:38;7.00;99.90
7399;DHT22;3740;50.700;7.184;2024-01-30T06:30:04;7.10;99.90
7399;DHT22;3740;50.700;7.184;2024-01-30T06:32:30;7.10;99.90
7399;DHT22;3740;50.700;7.184;2024-01-30T06:35:02;7.20;99.90
7399;DHT22;3740;50.700;7.184;2024-01-30T06:37:28;7.20;99.90
7399;DHT22;3740;50.700;7.184;2024-01-30T06:39:54;7.30;99.90
7399;DHT22;3740;50.700;7.184;2024-01-30T06:42:19;7.30;99.90
7399;DHT22;3740;50.700;7.184;2024-01-30T06:44:45;7.30;99.90
7399;DHT22;3740;50.700;7.184;2024-01-30T06:47:10;7.40;99.90
7399;DHT22;3740;50.700;7.184;2024-01-30T06:49:36;7.40;99.90
7399;DHT22;3740;50.700;7.184;2024-01-30T06:52:05;7.40;99.90
7399;DHT22;3740;50.700;7.184;2024-01-30T06:54:31;7.40;99.90
7399;DHT22;3740;50.700;7.184;2024-01-30T06:56:58;7.40;99.90
7399;DHT22;3740;50.700;7.184;2024-01-30T06:59:24;7.50;99.90
7399;DHT22;3740;50.700;7.184;2024-01-30T07:01:49;7.50;99.90
7399;DHT22;3740;50.700;7.184;2024-01-30T07:04:15;7.50;99.90
7399;DHT22;3740;50.700;7.184;2024-01-30T07:06:41;7.50;99.90
7399;DHT22;3740;50.700;7.184;2024-01-30T07:09:07;7.40;99.90
7399;DHT22;3740;50.700;7.184;2024-01-30T07:11:33;7.50;99.90
7399;DHT22;3740;50.700;7.184;2024-01-30T07:13:59;7.50;99.90
7399;DHT22;3740;50.700;7.184;2024-01-30T07:16:25;7.50;99.90
7399;DHT22;3740;50.700;7.184;2024-01-30T07:18:50;7.50;99.90
7399;DHT22;3740;50.700;7.184;2024-01-30T07:21:16;7.40;99.90
7399;DHT22;3740;50.700;7.184;2024-01-30T07:23:42;7.40;99.90
7399;DHT22;3740;50.700;7.184;2024-01-30T07:26:08;7.30;99.90
7399;DHT22;3740;50.700;7.184;2024-01-30T07:28:34;7.20;99.90
7399;DHT22;3740;50.700;7.184;2024-01-30T07:31:00;7.20;99.90
7399;DHT22;3740;50.700;7.184;2024-01-30T07:33:26;7.20;99.90
7399;DHT22;3740;50.700;7.184;2024-01-30T07:35:52;7.30;99.90
7399;DHT22;3740;50.700;7.184;2024-01-30T07:38:18;7.30;99.90
7399;DHT22;3740;50.700;7.184;2024-01-30T07:40:44;7.30;99.90
7399;DHT22;3740;50.700;7.184;2024-01-30T07:43:09;7.40;99.90
7399;DHT22;3740;50.700;7.184;2024-01-30T07:45:35;7.40;99.90
7399;DHT22;3740;50.700;7.184;2024-01-30T07:48:03;7.50;99.90
7399;DHT22;3740;50.700;7.184;2024-01-30T07:50:28;7.50;99.90
7399;DHT22;3740;50.700;7.184;2024-01-30T07:52:56;7.60;99.90
7399;DHT22;3740;50.700;7.184;2024-01-30T07:55:22;7.60;99.90
7399;DHT22;3740;50.700;7.184;2024-01-30T07:57:52;7.60;99.90
7399;DHT22;3740;50.700;7.184;2024-01-30T08:00:18;7.60;99.90
7399;DHT22;3740;50.700;7.184;2024-01-30T08:02:45;7.60;99.90
7399;DHT22;3740;50.700;7.184;2024-01-30T08:05:10;7.60;99.90
7399;DHT22;3740;50.700;7.184;2024-01-30T08:07:37;7.70;99.90
7399;DHT22;3740;50.700;7.184;2024-01-30T08:10:03;7.80;99.90
7399;DHT22;3740;50.700;7.184;2024-01-30T08:12:29;7.80;99.90
7399;DHT22;3740;50.700;7.184;2024-01-30T08:14:54;7.80;99.90
7399;DHT22;3740;50.700;7.184;2024-01-30T08:17:20;7.80;99.90
7399;DHT22;3740;50.700;7.184;2024-01-30T08:19:45;7.80;99.90
7399;DHT22;3740;50.700;7.184;2024-01-30T08:22:12;7.80;99.90
7399;DHT22;3740;50.700;7.184;2024-01-30T08:24:38;7.90;99.90
7399;DHT22;3740;50.700;7.184;2024-01-30T08:27:06;7.90;99.90
7399;DHT22;3740;50.700;7.184;2024-01-30T08:29:32;8.00;99.90
7399;DHT22;3740;50.700;7.184;2024-01-30T08:31:57;8.00;99.90
7399;DHT22;3740;50.700;7.184;2024-01-30T08:34:24;7.90;99.90
7399;DHT22;3740;50.700;7.184;2024-01-30T08:36:50;7.90;99.90
7399;DHT22;3740;50.700;7.184;2024-01-30T08:39:15;8.00;99.90
7399;DHT22;3740;50.700;7.184;2024-01-30T08:41:41;8.00;99.90
7399;DHT22;3740;50.700;7.184;2024-01-30T08:44:06;8.00;99.90
7399;DHT22;3740;50.700;7.184;2024-01-30T08:46:32;8.00;99.90
7399;DHT22;3740;50.700;7.184;2024-01-30T08:48:59;8.00;99.90
7399;DHT22;3740;50.700;7.184;2024-01-30T08:51:24;8.10;99.90
7399;DHT22;3740;50.700;7.184;2024-01-30T08:53:50;8.20;99.90
7399;DHT22;3740;50.700;7.184;2024-01-30T08:56:18;8.20;99.90
7399;DHT22;3740;50.700;7.184;2024-01-30T08:58:43;8.20;99.90
7399;DHT22;3740;50.700;7.184;2024-01-30T09:01:09;8.30;99.90
7399;DHT22;3740;50.700;7.184;2024-01-30T09:03:34;8.40;99.90
7399;DHT22;3740;50.700;7.184;2024-01-30T09:06:01;8.40;99.90
7399;DHT22;3740;50.700;7.184;2024-01-30T09:08:27;8.50;99.90
7399;DHT22;3740;50.700;7.184;2024-01-30T09:10:53;8.60;99.90
7399;DHT22;3740;50.700;7.184;2024-01-30T09:13:19;8.60;99.90
7399;DHT22;3740;50.700;7.184;2024-01-30T09:15:44;8.60;99.90
7399;DHT22;3740;50.700;7.184;2024-01-30T09:18:10;8.60;99.90
7399;DHT22;3740;50.700;7.184;2024-01-30T09:20:35;8.60;99.90
7399;DHT22;3740;50.700;7.184;2024-01-30T09:23:01;8.50;99.90
7399;DHT22;3740;50.700;7.184;2024-01-30T09:25:27;8.60;99.90
7399;DHT22;3740;50.700;7.184;2024-01-30T09:27:52;8.60;99.90
7399;DHT22;3740;50.700;7.184;2024-01-30T09:30:18;8.70;99.90
7399;DHT22;3740;50.700;7.184;2024-01-30T09:32:43;8.70;99.90
7399;DHT22;3740;50.700;7.184;2024-01-30T09:35:09;8.70;99.90
7399;DHT22;3740;50.700;7.184;2024-01-30T09:37:35;8.80;99.90
7399;DHT22;3740;50.700;7.184;2024-01-30T09:40:00;8.90;99.90
7399;DHT22;3740;50.700;7.184;2024-01-30T09:42:36;9.00;99.90
7399;DHT22;3740;50.700;7.184;2024-01-30T09:45:03;9.10;99.90
7399;DHT22;3740;50.700;7.184;2024-01-30T09:47:41;9.20;99.90
7399;DHT22;3740;50.700;7.184;2024-01-30T09:50:10;9.40;99.90
7399;DHT22;3740;50.700;7.184;2024-01-30T09:52:36;9.50;99.90
7399;DHT22;3740;50.700;7.184;2024-01-30T09:55:03;9.70;99.90
7399;DHT22;3740;50.700;7.184;2024-01-30T09:57:29;10.00;99.90
7399;DHT22;3740;50.700;7.184;2024-01-30T09:59:54;10.30;99.90
7399;DHT22;3740;50.700;7.184;2024-01-30T10:02:21;10.50;99.90
7399;DHT22;3740;50.700;7.184;2024-01-30T10:04:51;10.70;99.90
7399;DHT22;3740;50.700;7.184;2024-01-30T10:07:17;10.90;99.90
7399;DHT22;3740;50.700;7.184;2024-01-30T10:09:43;11.00;99.90
7399;DHT22;3740;50.700;7.184;2024-01-30T10:12:09;11.20;99.90
7399;DHT22;3740;50.700;7.184;2024-01-30T10:14:38;11.30;99.90
7399;DHT22;3740;50.700;7.184;2024-01-30T10:17:04;11.50;99.90
7399;DHT22;3740;50.700;7.184;2024-01-30T10:19:31;11.80;99.90
7399;DHT22;3740;50.700;7.184;2024-01-30T10:21:57;11.90;99.90
7399;DHT22;3740;50.700;7.184;2024-01-30T10:24:26;11.90;99.90
7399;DHT22;3740;50.700;7.184;2024-01-30T10:26:52;11.90;99.90
7399;DHT22;3740;50.700;7.184;2024-01-30T10:29:19;11.90;99.90
7399;DHT22;3740;50.700;7.184;2024-01-30T10:31:45;12.20;99.90
7399;DHT22;3740;50.700;7.184;2024-01-30T10:34:10;12.40;99.90
7399;DHT22;3740;50.700;7.184;2024-01-30T10:36:46;12.40;99.90
7399;DHT22;3740;50.700;7.184;2024-01-30T10:39:15;11.90;99.90
7399;DHT22;3740;50.700;7.184;2024-01-30T10:41:47;11.60;99.90
7399;DHT22;3740;50.700;7.184;2024-01-30T10:44:17;11.50;99.90
7399;DHT22;3740;50.700;7.184;2024-01-30T10:46:47;11.40;99.90
7399;DHT22;3740;50.700;7.184;2024-01-30T10:49:15;11.20;99.90
7399;DHT22;3740;50.700;7.184;2024-01-30T10:51:42;11.10;99.90
7399;DHT22;3740;50.700;7.184;2024-01-30T10:54:08;10.90;99.90
7399;DHT22;3740;50.700;7.184;2024-01-30T10:56:35;10.70;99.90
7399;DHT22;3740;50.700;7.184;2024-01-30T10:59:01;10.70;99.90
7399;DHT22;3740;50.700;7.184;2024-01-30T11:01:27;10.70;99.90
7399;DHT22;3740;50.700;7.184;2024-01-30T11:03:54;10.70;99.90
7399;DHT22;3740;50.700;7.184;2024-01-30T11:06:26;10.70;99.90
7399;DHT22;3740;50.700;7.184;2024-01-30T11:09:05;10.70;99.90
7399;DHT22;3740;50.700;7.184;2024-01-30T11:11:57;10.70;99.90
7399;DHT22;3740;50.700;7.184;2024-01-30T11:14:27;10.80;99.90
7399;DHT22;3740;50.700;7.184;2024-01-30T11:16:57;10.70;99.90
7399;DHT22;3740;50.700;7.184;2024-01-30T11:19:24;10.60;99.90
7399;DHT22;3740;50.700;7.184;2024-01-30T11:21:52;10.60;99.90
7399;DHT22;3740;50.700;7.184;2024-01-30T11:24:22;10.50;99.90
7399;DHT22;3740;50.700;7.184;2024-01-30T11:26:49;10.40;99.90
7399;DHT22;3740;50.700;7.184;2024-01-30T11:29:19;10.40;99.90
7399;DHT22;3740;50.700;7.184;2024-01-30T11:31:58;10.30;99.90
7399;DHT22;3740;50.700;7.184;2024-01-30T11:34:24;10.50;99.90
7399;DHT22;3740;50.700;7.184;2024-01-30T11:36:59;10.50;99.90
7399;DHT22;3740;50.700;7.184;2024-01-30T11:39:28;10.50;99.90
7399;DHT22;3740;50.700;7.184;2024-01-30T11:41:54;10.50;99.90
7399;DHT22;3740;50.700;7.184;2024-01-30T11:44:20;10.40;99.90
7399;DHT22;3740;50.700;7.184;2024-01-30T11:46:50;10.40;99.90
7399;DHT22;3740;50.700;7.184;2024-01-30T11:49:16;10.40;99.90
7399;DHT22;3740;50.700;7.184;2024-01-30T11:51:43;10.30;99.90
7399;DHT22;3740;50.700;7.184;2024-01-30T11:54:09;10.30;99.90
7399;DHT22;3740;50.700;7.184;2024-01-30T11:56:34;10.30;99.90
7399;DHT22;3740;50.700;7.184;2024-01-30T11:59:01;10.40;99.90
7399;DHT22;3740;50.700;7.184;2024-01-30T12:01:29;10.50;99.90
7399;DHT22;3740;50.700;7.184;2024-01-30T12:03:55;10.50;99.90
7399;DHT22;3740;50.700;7.184;2024-01-30T12:06:22;10.60;99.90
7399;DHT22;3740;50.700;7.184;2024-01-30T12:08:59;10.60;99.90
7399;DHT22;3740;50.700;7.184;2024-01-30T12:11:25;10.60;99.90
7399;DHT22;3740;50.700;7.184;2024-01-30T12:13:52;10.70;99.90
7399;DHT22;3740;50.700;7.184;2024-01-30T12:16:19;10.80;99.90
7399;DHT22;3740;50.700;7.184;2024-01-30T12:18:44;11.00;99.90
7399;DHT22;3740;50.700;7.184;2024-01-30T12:21:10;11.10;99.90
7399;DHT22;3740;50.700;7.184;2024-01-30T12:23:36;11.20;99.90
7399;DHT22;3740;50.700;7.184;2024-01-30T12:26:02;11.30;99.90
7399;DHT22;3740;50.700;7.184;2024-01-30T12:28:29;11.30;99.90
7399;DHT22;3740;50.700;7.184;2024-01-30T12:31:04;11.30;99.90
7399;DHT22;3740;50.700;7.184;2024-01-30T12:33:30;11.30;99.90
7399;DHT22;3740;50.700;7.184;2024-01-30T12:35:57;11.60;99.90
7399;DHT22;3740;50.700;7.184;2024-01-30T12:38:24;11.70;99.90
7399;DHT22;3740;50.700;7.184;2024-01-30T12:40:56;11.60;99.90
7399;DHT22;3740;50.700;7.184;2024-01-30T12:43:22;11.50;99.90
7399;DHT22;3740;50.700;7.184;2024-01-30T12:45:50;11.50;99.90
7399;DHT22;3740;50.700;7.184;2024-01-30T12:48:15;11.40;99.90
7399;DHT22;3740;50.700;7.184;2024-01-30T12:50:41;11.40;99.90
7399;DHT22;3740;50.700;7.184;2024-01-30T12:53:07;11.30;99.90
7399;DHT22;3740;50.700;7.184;2024-01-30T12:55:34;11.10;99.90
7399;DHT22;3740;50.700;7.184;2024-01-30T12:58:00;11.10;99.90
7399;DHT22;3740;50.700;7.184;2024-01-30T13:00:25;11.00;99.90
7399;DHT22;3740;50.700;7.184;2024-01-30T13:02:51;11.00;99.90
7399;DHT22;3740;50.700;7.184;2024-01-30T13:05:16;10.90;99.90
7399;DHT22;3740;50.700;7.184;2024-01-30T13:07:42;10.90;99.90
7399;DHT22;3740;50.700;7.184;2024-01-30T13:10:08;11.00;99.90
7399;DHT22;3740;50.700;7.184;2024-01-30T13:12:34;10.90;99.90
7399;DHT22;3740;50.700;7.184;2024-01-30T13:14:59;10.90;99.90
7399;DHT22;3740;50.700;7.184;2024-01-30T13:17:30;10.90;99.90
7399;DHT22;3740;50.700;7.184;2024-01-30T13:19:55;11.00;99.90
7399;DHT22;3740;50.700;7.184;2024-01-30T13:22:21;11.10;99.90
7399;DHT22;3740;50.700;7.184;2024-01-30T13:24:47;11.20;99.90
7399;DHT22;3740;50.700;7.184;2024-01-30T13:27:13;11.10;99.90
7399;DHT22;3740;50.700;7.184;2024-01-30T13:29:39;11.20;99.90
7399;DHT22;3740;50.700;7.184;2024-01-30T13:32:04;11.20;99.90
7399;DHT22;3740;50.700;7.184;2024-01-30T13:34:31;11.20;99.90
7399;DHT22;3740;50.700;7.184;2024-01-30T13:36:56;11.10;99.90
7399;DHT22;3740;50.700;7.184;2024-01-30T13:39:22;11.10;99.90
7399;DHT22;3740;50.700;7.184;2024-01-30T13:41:48;11.20;99.90
7399;DHT22;3740;50.700;7.184;2024-01-30T13:44:15;11.20;99.90
7399;DHT22;3740;50.700;7.184;2024-01-30T13:46:42;11.20;99.90
7399;DHT22;3740;50.700;7.184;2024-01-30T13:49:07;11.30;99.90
7399;DHT22;3740;50.700;7.184;2024-01-30T13:51:33;11.40;99.90
7399;DHT22;3740;50.700;7.184;2024-01-30T13:53:58;11.50;99.90
7399;DHT22;3740;50.700;7.184;2024-01-30T13:56:24;11.60;99.90
7399;DHT22;3740;50.700;7.184;2024-01-30T13:58:52;11.50;99.90
7399;DHT22;3740;50.700;7.184;2024-01-30T14:01:17;11.40;99.90
7399;DHT22;3740;50.700;7.184;2024-01-30T14:03:43;11.40;99.90
7399;DHT22;3740;50.700;7.184;2024-01-30T14:06:08;11.30;99.90
7399;DHT22;3740;50.700;7.184;2024-01-30T14:08:34;11.30;99.90
7399;DHT22;3740;50.700;7.184;2024-01-30T14:10:59;11.30;99.90
7399;DHT22;3740;50.700;7.184;2024-01-30T14:13:25;11.40;99.90
7399;DHT22;3740;50.700;7.184;2024-01-30T14:15:51;11.40;99.90
7399;DHT22;3740;50.700;7.184;2024-01-30T14:18:18;11.40;99.90
7399;DHT22;3740;50.700;7.184;2024-01-30T14:20:43;11.60;99.90
7399;DHT22;3740;50.700;7.184;2024-01-30T14:23:09;11.60;99.90
7399;DHT22;3740;50.700;7.184;2024-01-30T14:25:38;11.60;99.90
7399;DHT22;3740;50.700;7.184;2024-01-30T14:28:03;11.60;99.90
7399;DHT22;3740;50.700;7.184;2024-01-30T14:30:29;11.60;99.90
7399;DHT22;3740;50.700;7.184;2024-01-30T14:32:55;11.60;99.90
7399;DHT22;3740;50.700;7.184;2024-01-30T14:35:22;11.60;99.90
7399;DHT22;3740;50.700;7.184;2024-01-30T14:37:47;11.60;99.90
7399;DHT22;3740;50.700;7.184;2024-01-30T14:40:13;11.70;99.90
7399;DHT22;3740;50.700;7.184;2024-01-30T14:42:38;11.70;99.90
7399;DHT22;3740;50.700;7.184;2024-01-30T14:45:07;11.60;99.90
7399;DHT22;3740;50.700;7.184;2024-01-30T14:47:34;11.50;99.90
7399;DHT22;3740;50.700;7.184;2024-01-30T14:50:01;11.30;99.90
7399;DHT22;3740;50.700;7.184;2024-01-30T14:52:27;11.30;99.90
7399;DHT22;3740;50.700;7.184;2024-01-30T14:54:52;11.40;99.90
7399;DHT22;3740;50.700;7.184;2024-01-30T14:57:18;11.50;99.90
7399;DHT22;3740;50.700;7.184;2024-01-30T14:59:43;11.50;99.90
7399;DHT22;3740;50.700;7.184;2024-01-30T15:02:09;11.60;99.90
7399;DHT22;3740;50.700;7.184;2024-01-30T15:04:34;11.60;99.90
7399;DHT22;3740;50.700;7.184;2024-01-30T15:07:00;11.60;99.90
7399;DHT22;3740;50.700;7.184;2024-01-30T15:09:26;11.60;99.90
7399;DHT22;3740;50.700;7.184;2024-01-30T15:11:52;11.60;99.90
7399;DHT22;3740;50.700;7.184;2024-01-30T15:14:17;11.70;99.90
7399;DHT22;3740;50.700;7.184;2024-01-30T15:16:43;11.70;99.90
7399;DHT22;3740;50.700;7.184;2024-01-30T15:19:09;11.70;99.90
7399;DHT22;3740;50.700;7.184;2024-01-30T15:21:35;11.70;99.90
7399;DHT22;3740;50.700;7.184;2024-01-30T15:24:01;11.70;99.90
7399;DHT22;3740;50.700;7.184;2024-01-30T15:26:27;11.70;99.90
7399;DHT22;3740;50.700;7.184;2024-01-30T15:28:53;11.70;99.90
7399;DHT22;3740;50.700;7.184;2024-01-30T15:31:18;11.60;99.90
7399;DHT22;3740;50.700;7.184;2024-01-30T15:33:44;11.60;99.90
7399;DHT22;3740;50.700;7.184;2024-01-30T15:36:10;11.60;99.90
7399;DHT22;3740;50.700;7.184;2024-01-30T15:38:38;11.50;99.90
7399;DHT22;3740;50.700;7.184;2024-01-30T15:41:04;11.40;99.90
7399;DHT22;3740;50.700;7.184;2024-01-30T15:43:30;11.30;99.90
7399;DHT22;3740;50.700;7.184;2024-01-30T15:45:58;11.20;99.90
7399;DHT22;3740;50.700;7.184;2024-01-30T15:48:24;11.30;99.90
7399;DHT22;3740;50.700;7.184;2024-01-30T15:50:49;11.30;99.90
7399;DHT22;3740;50.700;7.184;2024-01-30T15:53:15;11.40;99.90
7399;DHT22;3740;50.700;7.184;2024-01-30T15:55:40;11.40;99.90
7399;DHT22;3740;50.700;7.184;2024-01-30T15:58:06;11.40;99.90
7399;DHT22;3740;50.700;7.184;2024-01-30T16:00:32;11.40;99.90
7399;DHT22;3740;50.700;7.184;2024-01-30T16:02:57;11.50;99.90
7399;DHT22;3740;50.700;7.184;2024-01-30T16:05:23;11.40;99.90